Latest Coastal Weather Observations for Rottnest Island

IDW60701

Issued at 6:55 pm WST Friday 18 April 2014 (issued every 10 minutes, with the page automatically refreshed every 10 minutes)

About coastal observations | Map of coastal stations | Coastal observations for WA | Marine services | Other Formats
Station Details ID: 009193 Name: ROTTNEST ISLAND Lat: -32.01 Lon: 115.50 Height: 43.1 m
Data from the previous 72 hours. | See also: Recent months at Rottnest Island
Date/Time
WST
Temp

°C
Wind Pressure Rain
since 9am
mm
Weather Cloud Vis
km
Sea
Height
m
Swell
Dir
 
Speed
knots
Gust
knots
hPa Trend Height
m
Period
s
Dir
18/06:30pm 20.3 S 16 20 1018.5 - 0.0 - - - - - - -
18/06:00pm 20.3 S 16 19 1018.0 - 0.0 - - - - - - -
18/05:30pm 20.8 S 16 19 1018.0 - 0.0 - - - - - - -
18/05:00pm 20.7 S 16 19 1017.9 - 0.0 - - - - - - -
18/04:30pm 21.0 SSW 17 20 1018.1 - 0.0 - - - - - - -
18/04:00pm 21.6 S 16 19 1018.0 - 0.0 - - - - - - -
18/03:30pm 22.3 S 14 16 1018.1 - 0.0 - - - - - - -
18/03:00pm 22.0 S 12 14 1018.0 - 0.0 - - - - - - -
18/02:30pm 22.3 S 12 14 1018.2 - 0.0 - - - - - - -
18/02:00pm 22.3 S 10 13 1018.4 - 0.0 - - - - - - -
18/01:30pm 22.7 S 9 12 1018.5 - 0.0 - - - - - - -
18/01:00pm 22.8 SSE 9 11 1019.0 - 0.0 - - - - - - -
18/12:30pm 22.6 SSE 11 13 1019.5 - 0.0 - - - - - - -
18/12:00pm 24.2 E 7 11 1019.8 - 0.0 - - - - - - -
18/11:30am 22.2 E 9 14 1020.2 - 0.0 - - - - - - -
18/11:00am 21.1 E 11 16 1020.5 - 0.0 - - - - - - -
18/10:30am 20.0 E 11 15 1021.0 - 0.0 - - - - - - -
18/10:00am 20.5 E 13 19 1021.1 - 0.0 - - - - - - -
18/09:30am 19.9 E 14 19 1021.4 - 0.0 - - - - - - -
18/09:00am 19.5 E 14 21 1021.3 - 0.0 - - - - - - -
18/08:30am 19.4 E 14 21 1021.5 - 0.0 - - - - - - -
18/08:00am 18.6 ENE 13 17 1021.6 - 0.0 - - - - - - -
18/07:30am 18.4 ENE 11 20 1021.5 - 0.0 - - - - - - -
18/07:00am 17.8 E 11 18 1021.4 - 0.0 - - - - - - -
18/06:30am 17.7 E 12 17 1021.2 - 0.0 - - - - - - -
18/06:00am 17.8 E 11 16 1021.1 - 0.0 - - - - - - -
18/05:30am 17.7 E 11 16 1021.2 - 0.0 - - - - - - -
18/05:00am 17.8 E 11 15 1021.3 - 0.0 - - - - - - -
18/04:30am 17.9 E 12 16 1021.1 - 0.0 - - - - - - -
18/04:00am 17.8 E 10 15 1021.0 - 0.0 - - - - - - -
18/03:30am 18.0 ESE 11 15 1021.1 - 0.0 - - - - - - -
18/03:00am 18.3 ESE 11 16 1020.9 - 0.0 - - - - - - -
18/02:30am 18.6 SE 13 16 1021.3 - 0.0 - - - - - - -
18/02:00am 19.1 SE 15 19 1021.3 - 0.0 - - - - - - -
18/01:30am 19.3 SE 16 20 1021.4 - 0.0 - - - - - - -
18/01:00am 19.3 SE 18 21 1021.6 - 0.0 - - - - - - -
18/12:30am 19.4 SSE 16 21 1021.5 - 0.0 - - - - - - -
18/12:00am 19.5 SE 17 23 1021.4 - 0.0 - - - - - - -
 
Date/Time
WST
Temp

°C
Wind Pressure Rain
since 9am
mm
Weather Cloud Vis
km
Sea
Height
m
Swell
Dir
 
Speed
knots
Gust
knots
hPa Trend Height
m
Period
s
Dir
17/11:30pm 19.8 SSE 21 25 1021.5 - 0.0 - - - - - - -
17/11:00pm 20.1 SSE 22 27 1021.6 - 0.0 - - - - - - -
17/10:30pm 20.4 SSE 22 26 1021.8 - 0.0 - - - - - - -
17/10:00pm 20.6 SSE 21 26 1022.0 - 0.0 - - - - - - -
17/09:30pm 20.8 S 21 25 1021.9 - 0.0 - - - - - - -
17/09:00pm 20.7 S 20 25 1021.7 - 0.0 - - - - - - -
17/08:30pm 20.7 S 21 24 1021.8 - 0.0 - - - - - - -
17/08:00pm 20.4 S 20 25 1021.8 - 0.0 - - - - - - -
17/07:30pm 20.4 S 19 23 1021.6 - 0.0 - - - - - - -
17/07:00pm 20.3 S 19 24 1021.3 - 0.0 - - - - - - -
17/06:30pm 20.2 S 18 23 1021.3 - 0.0 - - - - - - -
17/06:00pm 20.2 S 17 21 1020.7 - 0.0 - - - - - - -
17/05:30pm 20.5 S 18 21 1020.7 - 0.0 - - - - - - -
17/05:00pm 20.7 S 15 19 1020.6 - 0.0 - - - - - - -
17/04:30pm 20.8 S 14 19 1020.6 - 0.0 - - - - - - -
17/04:00pm 21.0 S 14 17 1020.7 - 0.0 - - - - - - -
17/03:30pm 21.3 SSW 14 16 1020.7 - 0.0 - - - - - - -
17/03:00pm 21.8 S 13 17 1020.5 - 0.0 - - - - - - -
17/02:30pm 22.4 S 12 16 1020.9 - 0.0 - - - - - - -
17/02:00pm 21.8 S 9 12 1021.0 - 0.0 - - - - - - -
17/01:30pm 21.5 S 8 10 1021.1 - 0.0 - - - - - - -
17/01:00pm 22.0 SSE 6 9 1021.4 - 0.0 - - - - - - -
17/12:30pm 21.3 SSE 7 9 1022.0 - 0.0 - - - - - - -
17/12:00pm 21.4 SSE 7 10 1022.1 - 0.0 - - - - - - -
17/11:30am 21.3 SSE 7 8 1022.2 - 0.0 - - - - - - -
17/11:00am 21.9 ENE 6 8 1022.4 - 0.0 - - - - - - -
17/10:30am 21.2 ENE 4 7 1022.6 - 0.0 - - - - - - -
17/10:00am 20.4 NNE 7 9 1022.6 - 0.0 - - - - - - -
17/09:30am 21.1 NE 6 8 1022.4 - 0.0 - - - - - - -
17/09:00am 19.7 ENE 6 8 1022.2 - 0.0 - - - - - - -
17/08:30am 19.5 ENE 7 9 1022.2 - 0.0 - - - - - - -
17/08:00am 19.2 E 6 10 1022.0 - 0.0 - - - - - - -
17/07:30am 19.1 E 6 7 1021.6 - 0.0 - - - - - - -
17/07:00am 19.3 SSE 5 8 1021.3 - 0.0 - - - - - - -
17/06:30am 18.8 S 12 16 1021.0 - 0.0 - - - - - - -
17/06:00am 18.0 E 1 4 1020.6 - 0.0 - - - - - - -
17/05:30am 18.2 E 1 5 1020.6 - 0.0 - - - - - - -
17/05:00am 18.8 SSE 8 11 1020.4 - 0.0 - - - - - - -
17/04:30am 18.6 S 12 16 1020.1 - 0.0 - - - - - - -
17/04:00am 18.9 S 12 17 1019.8 - 0.0 - - - - - - -
17/03:30am 18.8 S 11 14 1019.9 - 0.0 - - - - - - -
17/03:00am 18.9 S 11 14 1019.7 - 0.0 - - - - - - -
17/02:30am 19.1 S 12 16 1020.1 - 0.0 - - - - - - -
17/02:00am 18.9 SSW 11 15 1020.1 - 0.0 - - - - - - -
17/01:30am 18.9 S 13 19 1019.9 - 0.0 - - - - - - -
17/01:00am 18.8 S 13 16 1020.1 - 0.0 - - - - - - -
17/12:30am 19.0 S 13 18 1019.7 - 0.0 - - - - - - -
17/12:00am 18.7 S 13 16 1019.8 - 0.0 - - - - - - -
 
Date/Time
WST
Temp

°C
Wind Pressure Rain
since 9am
mm
Weather Cloud Vis
km
Sea
Height
m
Swell
Dir
 
Speed
knots
Gust
knots
hPa Trend Height
m
Period
s
Dir
16/11:30pm 18.9 S 14 19 1020.2 - 0.0 - - - - - - -
16/11:00pm 18.7 S 14 19 1020.3 - 0.0 - - - - - - -
16/10:30pm 18.7 S 15 18 1020.4 - 0.0 - - - - - - -
16/10:00pm 18.8 S 14 17 1020.5 - 0.0 - - - - - - -
16/09:30pm 18.9 S 15 18 1020.4 - 0.0 - - - - - - -
16/09:00pm 18.9 S 16 20 1020.0 - 0.0 - - - - - - -
16/08:30pm 18.6 S 15 18 1020.3 - 0.0 - - - - - - -
16/08:00pm 18.8 S 16 20 1020.1 - 0.0 - - - - - - -
16/07:30pm 18.9 S 15 19 1020.1 - 0.0 - - - - - - -
16/07:00pm 18.9 S 15 19 1020.0 - 0.0 - - - - - - -
16/06:30pm 18.9 S 16 19 1019.8 - 0.0 - - - - - - -
16/06:00pm 18.9 S 15 19 1019.7 - 0.0 - - - - - - -
16/05:30pm 19.2 S 15 19 1019.9 - 0.0 - - - - - - -
16/05:00pm 19.8 SSW 15 19 1019.9 - 0.0 - - - - - - -
16/04:30pm 20.2 SSW 15 18 1020.0 - 0.0 - - - - - - -
16/04:00pm 20.2 SSW 15 18 1020.0 - 0.0 - - - - - - -
16/03:30pm 20.6 S 16 19 1020.2 - 0.0 - - - - - - -
16/03:00pm 20.4 SSW 15 20 1020.2 - 0.0 - - - - - - -
16/02:30pm 20.8 SSW 15 19 1020.4 - 0.0 - - - - - - -
16/02:00pm 20.8 S 14 17 1020.5 - 0.0 - - - - - - -
16/01:30pm 20.7 S 13 17 1020.8 - 0.0 - - - - - - -
16/01:00pm 20.2 SSW 12 15 1021.1 - 0.0 - - - - - - -
16/12:30pm 19.9 S 11 14 1021.6 - 0.0 - - - - - - -
16/12:00pm 19.6 S 9 13 1021.8 - 0.0 - - - - - - -
16/11:30am 19.7 S 8 11 1022.4 - 0.0 - - - - - - -
16/11:00am 19.8 SSE 7 9 1022.8 - 0.0 - - - - - - -
16/10:30am 19.6 SSE 6 9 1023.0 - 0.0 - - - - - - -
16/10:00am 19.5 SSE 6 8 1023.3 - 0.0 - - - - - - -
16/09:30am 19.3 ESE 6 8 1023.3 - 0.0 - - - - - - -
16/09:00am 19.3 E 5 8 1023.1 - 1.2 - - - - - - -
16/08:30am 19.6 S 8 10 1023.2 - 1.2 - - - - - - -
16/08:00am 19.3 S 8 10 1023.0 - 1.2 - - - - - - -
16/07:30am 19.0 S 10 12 1022.5 - 1.2 - - - - - - -
16/07:00am 18.9 S 11 13 1022.3 - 1.2 - - - - - - -
16/06:30am 18.6 S 13 16 1021.9 - 1.2 - - - - - - -
16/06:00am 18.6 S 16 19 1021.4 - 1.2 - - - - - - -
16/05:30am 18.9 S 15 18 1021.9 - 1.2 - - - - - - -
16/05:00am 19.1 S 16 19 1021.7 - 1.2 - - - - - - -
16/04:30am 19.0 SSE 15 18 1021.6 - 1.2 - - - - - - -
16/04:00am 19.1 SSE 14 17 1021.6 - 1.2 - - - - - - -
16/03:30am 19.0 SSE 14 19 1021.4 - 1.2 - - - - - - -
16/03:00am 18.9 SSE 18 24 1020.9 - 1.2 - - - - - - -
16/02:30am 18.8 SSE 19 23 1021.4 - 1.2 - - - - - - -
16/02:00am 19.1 S 19 23 1021.4 - 1.2 - - - - - - -
16/01:30am 19.2 SSE 18 22 1021.7 - 1.2 - - - - - - -
16/01:00am 19.0 SSE 19 22 1021.7 - 1.2 - - - - - - -
16/12:30am 18.6 S 20 27 1021.7 - 1.2 - - - - - - -
16/12:00am 18.8 S 17 21 1021.5 - 0.8 - - - - - - -
 
Date/Time
WST
Temp

°C
Wind Pressure Rain
since 9am
mm
Weather Cloud Vis
km
Sea
Height
m
Swell
Dir
 
Speed
knots
Gust
knots
hPa Trend Height
m
Period
s
Dir
15/11:30pm 19.0 S 14 17 1022.1 - 0.2 - - - - - - -
15/11:00pm 20.6 S 12 15 1022.2 - 0.0 - - - - - - -
15/10:30pm 20.4 S 7 9 1022.4 - 0.0 - - - - - - -
15/10:00pm 20.6 S 8 11 1022.6 - 0.0 - - - - - - -
15/09:30pm 20.7 SSW 10 13 1022.6 - 0.0 - - - - - - -
15/09:00pm 21.1 SSW 10 13 1022.5 - 0.0 - - - - - - -
15/08:30pm 20.6 SSW 8 9 1022.6 - 0.0 - - - - - - -
15/08:00pm 21.0 SSW 10 13 1022.4 - 0.0 - - - - - - -
15/07:30pm 20.5 SSW 10 13 1022.5 - 0.0 - - - - - - -
15/07:00pm 20.4 SW 10 12 1022.2 - 0.0 - - - - - - -

Other Formats:

Comma delimited format used in spreadsheet applications
http://www.bom.gov.au/fwo/IDW60701/IDW60701.94602.axf

JavaScript Object Notation format (JSON) in row-major order
http://www.bom.gov.au/fwo/IDW60701/IDW60701.94602.json